Time;durP1;ratioP1;P1;durP2;ratioP2;P2;SDS_P1;SDS_P2;PMS_P1;PMS_P2;Temp;Humidity;BMP_temperature;BMP_pressure;BME280_temperature;BME280_humidity;BME280_pressure;Samples;Min_cycle;Max_cycle;Signal;HPM_P1;HPM_P2
2021/01/25 00:01:58;;;;;;;7.22;2.97;;;1.50;99.90;;;;;;5075793;28;20370;-72
2021/01/25 00:04:26;;;;;;;5.15;2.88;;;1.50;99.90;;;;;;5073049;28;20579;-72
2021/01/25 00:06:54;;;;;;;6.47;3.30;;;1.50;99.90;;;;;;5072309;28;20059;-72
2021/01/25 00:09:21;;;;;;;6.80;3.30;;;1.50;99.90;;;;;;5073537;28;20033;-72
2021/01/25 00:11:50;;;;;;;5.70;3.10;;;1.50;99.90;;;;;;5075123;28;20459;-72
2021/01/25 00:14:17;;;;;;;7.00;3.88;;;1.50;99.90;;;;;;5075933;28;20027;-72
2021/01/25 00:16:43;;;;;;;6.53;3.42;;;1.50;99.90;;;;;;5075419;28;20032;-72
2021/01/25 00:19:11;;;;;;;7.07;3.50;;;1.50;99.90;;;;;;5074897;28;20036;-72
2021/01/25 00:21:39;;;;;;;6.65;3.47;;;1.50;99.90;;;;;;5073883;28;20698;-72
2021/01/25 00:24:08;;;;;;;5.75;3.33;;;1.50;99.90;;;;;;5072922;28;20119;-72
2021/01/25 00:26:33;;;;;;;5.93;3.53;;;1.50;99.90;;;;;;5055998;28;20032;-72
2021/01/25 00:29:01;;;;;;;5.53;3.33;;;1.50;99.90;;;;;;5075266;28;20043;-72
2021/01/25 00:31:31;;;;;;;8.57;3.83;;;1.50;99.90;;;;;;5077923;28;20031;-72
2021/01/25 00:33:57;;;;;;;7.80;4.00;;;1.50;99.90;;;;;;5076648;28;20032;-72
2021/01/25 00:36:31;;;;;;;7.22;3.75;;;1.50;99.90;;;;;;5078367;28;20473;-73
2021/01/25 00:38:58;;;;;;;7.13;3.92;;;1.50;99.90;;;;;;5076033;28;20058;-72
2021/01/25 00:41:24;;;;;;;6.85;4.03;;;1.50;99.90;;;;;;5077688;28;20415;-73
2021/01/25 00:43:50;;;;;;;7.20;4.20;;;1.50;99.90;;;;;;5074364;28;20036;-74
2021/01/25 00:46:15;;;;;;;8.05;4.45;;;1.60;99.90;;;;;;5077452;28;20639;-73
2021/01/25 00:48:43;;;;;;;7.72;4.32;;;1.60;99.90;;;;;;5076840;28;20123;-73
2021/01/25 00:51:11;;;;;;;7.65;4.60;;;1.60;99.90;;;;;;5084920;28;20123;-73
2021/01/25 00:53:37;;;;;;;7.88;4.78;;;1.60;99.90;;;;;;5080414;28;20579;-73
2021/01/25 00:56:08;;;;;;;9.23;4.63;;;1.60;99.90;;;;;;5078281;28;20039;-73
2021/01/25 00:58:34;;;;;;;7.70;4.38;;;1.60;99.90;;;;;;5070084;28;20036;-73
2021/01/25 01:01:02;;;;;;;7.35;4.88;;;1.50;99.90;;;;;;5077561;28;20078;-74
2021/01/25 01:03:30;;;;;;;9.45;5.13;;;1.50;99.90;;;;;;5076813;28;20060;-73
2021/01/25 01:05:58;;;;;;;6.80;4.60;;;1.50;99.90;;;;;;5078102;28;20042;-73
2021/01/25 01:08:26;;;;;;;10.18;5.53;;;1.50;99.90;;;;;;5074382;28;20043;-74
2021/01/25 01:10:56;;;;;;;9.20;5.50;;;1.50;99.90;;;;;;5075910;28;20044;-73
2021/01/25 01:13:22;;;;;;;10.30;6.82;;;1.50;99.90;;;;;;5075759;28;20617;-73
2021/01/25 01:15:50;;;;;;;9.02;5.95;;;1.40;99.90;;;;;;5076080;28;20028;-73
2021/01/25 01:18:15;;;;;;;9.70;6.80;;;1.40;99.90;;;;;;5078338;28;20033;-73
2021/01/25 01:20:41;;;;;;;12.10;7.25;;;1.40;99.90;;;;;;5076510;28;20066;-73
2021/01/25 01:23:11;;;;;;;11.98;6.78;;;1.40;99.90;;;;;;5089826;28;20031;-73
2021/01/25 01:25:37;;;;;;;12.98;7.65;;;1.40;99.90;;;;;;5091899;28;20032;-73
2021/01/25 01:28:07;;;;;;;10.77;7.50;;;1.40;99.90;;;;;;5073671;28;20373;-73
2021/01/25 01:30:38;;;;;;;13.02;7.95;;;1.40;99.90;;;;;;5077538;28;20127;-73
2021/01/25 01:33:03;;;;;;;13.25;8.18;;;1.40;99.90;;;;;;5076197;28;20032;-73
2021/01/25 01:35:31;;;;;;;13.35;8.60;;;1.40;99.90;;;;;;5075434;28;20040;-73
2021/01/25 01:37:57;;;;;;;11.00;8.35;;;1.40;99.90;;;;;;5078377;28;20460;-73
2021/01/25 01:40:22;;;;;;;12.65;8.00;;;1.50;99.90;;;;;;5078009;28;20039;-73
2021/01/25 01:42:48;;;;;;;12.52;8.45;;;1.50;99.90;;;;;;5076824;28;20366;-73
2021/01/25 01:45:14;;;;;;;11.88;8.30;;;1.50;99.90;;;;;;5078129;28;20108;-73
2021/01/25 01:47:42;;;;;;;12.32;9.02;;;1.50;99.90;;;;;;5076799;28;20024;-72
2021/01/25 01:50:11;;;;;;;12.45;8.70;;;1.50;99.90;;;;;;5079759;28;20020;-73
2021/01/25 01:52:37;;;;;;;13.68;9.25;;;1.50;99.90;;;;;;5092413;28;20032;-73
2021/01/25 01:55:05;;;;;;;14.48;9.13;;;1.50;99.90;;;;;;5079370;28;20043;-73
2021/01/25 01:57:34;;;;;;;13.38;9.50;;;1.50;99.90;;;;;;5085528;28;20095;-73
2021/01/25 02:00:01;;;;;;;13.32;8.90;;;1.50;99.90;;;;;;5065749;28;20023;-72
2021/01/25 02:02:31;;;;;;;18.63;11.93;;;1.50;99.90;;;;;;5079180;28;20420;-73
2021/01/25 02:04:57;;;;;;;13.48;9.77;;;1.50;99.90;;;;;;5075639;28;20101;-73
2021/01/25 02:07:23;;;;;;;15.40;11.27;;;1.40;99.90;;;;;;5073693;28;20039;-73
2021/01/25 02:09:49;;;;;;;14.55;10.07;;;1.40;99.90;;;;;;5074844;28;20028;-73
2021/01/25 02:12:15;;;;;;;19.48;11.52;;;1.40;99.90;;;;;;5075334;28;20028;-73
2021/01/25 02:14:41;;;;;;;16.77;10.80;;;1.40;99.90;;;;;;5052210;28;20028;-73
2021/01/25 02:17:10;;;;;;;15.25;10.80;;;1.40;99.90;;;;;;5053915;28;20036;-73
2021/01/25 02:19:46;;;;;;;15.35;11.45;;;1.40;99.90;;;;;;5057855;28;20039;-73
2021/01/25 02:22:24;;;;;;;17.17;11.77;;;1.40;99.90;;;;;;5074884;28;20059;-73
2021/01/25 02:25:20;;;;;;;15.57;11.00;;;1.40;99.90;;;;;;5079127;28;20047;-73
2021/01/25 02:27:48;;;;;;;14.73;10.63;;;1.40;99.90;;;;;;5079629;28;21581;-74
2021/01/25 02:30:15;;;;;;;15.85;11.43;;;1.40;99.90;;;;;;5063082;28;20449;-73
2021/01/25 02:32:40;;;;;;;14.95;11.00;;;1.40;99.90;;;;;;5074388;28;20036;-73
2021/01/25 02:35:12;;;;;;;15.65;11.23;;;1.50;99.90;;;;;;5041876;28;21844;-72
2021/01/25 02:37:40;;;;;;;15.88;11.15;;;1.50;99.90;;;;;;5075217;28;20028;-73
2021/01/25 02:40:07;;;;;;;17.08;11.38;;;1.50;99.90;;;;;;5075203;28;20037;-73
2021/01/25 02:42:38;;;;;;;14.60;10.48;;;1.50;99.90;;;;;;5074605;28;20032;-73
2021/01/25 02:45:08;;;;;;;16.38;11.55;;;1.50;99.90;;;;;;5059179;28;20073;-73
2021/01/25 02:47:37;;;;;;;15.23;10.75;;;1.50;99.90;;;;;;5069188;28;20043;-73
2021/01/25 02:50:07;;;;;;;14.35;10.15;;;1.50;99.90;;;;;;5082196;28;20101;-73
2021/01/25 02:52:32;;;;;;;15.82;10.68;;;1.60;99.90;;;;;;5075658;28;20035;-73
2021/01/25 02:54:58;;;;;;;15.57;11.45;;;1.60;99.90;;;;;;5060370;28;20028;-73
2021/01/25 02:57:26;;;;;;;14.93;10.52;;;1.50;99.90;;;;;;5073817;28;20024;-73
2021/01/25 02:59:52;;;;;;;23.38;14.93;;;1.60;99.90;;;;;;5074278;28;20027;-73
2021/01/25 03:02:20;;;;;;;22.17;14.30;;;1.50;99.90;;;;;;5074166;28;20044;-73
2021/01/25 03:04:45;;;;;;;19.27;12.00;;;1.50;99.90;;;;;;5070456;28;20036;-73
2021/01/25 03:07:11;;;;;;;19.33;13.57;;;1.50;99.90;;;;;;5074721;28;20110;-74
2021/01/25 03:09:37;;;;;;;18.48;12.50;;;1.50;99.90;;;;;;5079384;28;20046;-73
2021/01/25 03:12:06;;;;;;;19.15;12.57;;;1.40;99.90;;;;;;5073392;28;20042;-73
2021/01/25 03:14:32;;;;;;;18.75;12.23;;;1.40;99.90;;;;;;5068931;28;20058;-73
2021/01/25 03:16:57;;;;;;;22.05;14.75;;;1.40;99.90;;;;;;5062571;28;20043;-73
2021/01/25 03:19:26;;;;;;;19.63;13.43;;;1.40;99.90;;;;;;5073569;28;20032;-73
2021/01/25 03:21:53;;;;;;;20.30;12.75;;;1.30;99.90;;;;;;5077821;28;20583;-73
2021/01/25 03:24:22;;;;;;;18.52;12.13;;;1.30;99.90;;;;;;5069167;28;20028;-73
2021/01/25 03:26:48;;;;;;;22.40;14.20;;;1.30;99.90;;;;;;5073581;28;20032;-74
2021/01/25 03:29:18;;;;;;;17.05;11.93;;;1.30;99.90;;;;;;5073439;28;21907;-73
2021/01/25 03:31:44;;;;;;;18.25;12.98;;;1.30;99.90;;;;;;5074634;28;20039;-73
2021/01/25 03:34:09;;;;;;;18.02;12.88;;;1.30;99.90;;;;;;5058205;28;20032;-73
2021/01/25 03:36:35;;;;;;;18.20;11.95;;;1.30;99.90;;;;;;5075186;28;20044;-73
2021/01/25 03:39:01;;;;;;;18.30;12.38;;;1.40;99.90;;;;;;5075452;28;20493;-73
2021/01/25 03:41:27;;;;;;;19.27;12.27;;;1.40;99.90;;;;;;5072529;28;20060;-73
2021/01/25 03:43:55;;;;;;;17.83;12.27;;;1.40;99.90;;;;;;5074297;28;20062;-73
2021/01/25 03:46:20;;;;;;;17.63;11.45;;;1.40;99.90;;;;;;5074619;28;20985;-73
2021/01/25 03:48:46;;;;;;;19.73;12.38;;;1.40;99.90;;;;;;5073387;28;20036;-73
2021/01/25 03:51:14;;;;;;;18.10;11.75;;;1.40;99.90;;;;;;5073876;28;20476;-73
2021/01/25 03:53:41;;;;;;;21.48;12.52;;;1.40;99.90;;;;;;5084702;28;20071;-73
2021/01/25 03:56:09;;;;;;;18.60;13.18;;;1.40;99.90;;;;;;5093792;28;20028;-73
2021/01/25 03:58:36;;;;;;;24.20;15.10;;;1.40;99.90;;;;;;5075629;28;20643;-73
2021/01/25 04:01:02;;;;;;;24.95;14.70;;;1.40;99.90;;;;;;5063247;28;20047;-73
2021/01/25 04:03:28;;;;;;;22.75;13.73;;;1.40;99.90;;;;;;5074405;28;20056;-73
2021/01/25 04:05:53;;;;;;;15.57;11.23;;;1.40;99.90;;;;;;5079679;28;20110;-73
2021/01/25 04:08:24;;;;;;;16.83;10.68;;;1.40;99.90;;;;;;5077748;28;20028;-73
2021/01/25 04:10:52;;;;;;;23.40;13.75;;;1.40;99.90;;;;;;5076980;28;20035;-73
2021/01/25 04:13:18;;;;;;;15.45;10.80;;;1.40;99.90;;;;;;5079166;28;20111;-73
2021/01/25 04:15:43;;;;;;;18.65;10.75;;;1.40;99.90;;;;;;5054655;28;20419;-74
2021/01/25 04:18:09;;;;;;;15.75;10.73;;;1.40;99.90;;;;;;5078631;28;20031;-73
2021/01/25 04:20:37;;;;;;;15.60;10.60;;;1.40;99.90;;;;;;5077391;28;20042;-73
2021/01/25 04:23:05;;;;;;;14.35;10.32;;;1.40;99.90;;;;;;5079056;28;20636;-73
2021/01/25 04:25:33;;;;;;;14.90;9.55;;;1.50;99.90;;;;;;5079437;28;20033;-74
2021/01/25 04:28:01;;;;;;;12.48;9.10;;;1.50;99.90;;;;;;5088091;28;20035;-73
2021/01/25 04:30:26;;;;;;;15.75;10.65;;;1.50;99.90;;;;;;5091040;28;20108;-73
2021/01/25 04:32:59;;;;;;;14.55;9.50;;;1.50;99.90;;;;;;5073594;28;20039;-73
2021/01/25 04:35:25;;;;;;;15.13;10.32;;;1.50;99.90;;;;;;5077463;28;20063;-73
2021/01/25 04:37:50;;;;;;;14.75;10.13;;;1.50;99.90;;;;;;5077978;28;20702;-73
2021/01/25 04:40:18;;;;;;;13.80;9.30;;;1.50;99.90;;;;;;5076378;28;20109;-73
2021/01/25 04:42:44;;;;;;;16.33;10.35;;;1.50;99.90;;;;;;5077257;28;20028;-74
2021/01/25 04:45:13;;;;;;;16.60;10.77;;;1.50;99.90;;;;;;5067595;28;20105;-73
2021/01/25 04:47:43;;;;;;;18.40;11.20;;;1.50;99.90;;;;;;5067925;28;20594;-73
2021/01/25 04:50:11;;;;;;;18.42;11.73;;;1.50;99.90;;;;;;5078848;28;20032;-73
2021/01/25 04:52:40;;;;;;;18.02;11.82;;;1.50;99.90;;;;;;5061622;28;20547;-73
2021/01/25 04:55:09;;;;;;;17.50;11.50;;;1.60;99.90;;;;;;5055628;28;20619;-73
2021/01/25 04:57:35;;;;;;;21.52;12.95;;;1.50;99.90;;;;;;5062819;28;20046;-74
2021/01/25 05:00:07;;;;;;;20.85;14.38;;;1.50;99.90;;;;;;5063248;28;20028;-73
2021/01/25 05:02:39;;;;;;;21.35;14.30;;;1.50;99.90;;;;;;5075966;28;20038;-73
2021/01/25 05:05:08;;;;;;;18.35;12.95;;;1.50;99.90;;;;;;5056191;28;20032;-73
2021/01/25 05:07:34;;;;;;;22.13;14.43;;;1.50;99.90;;;;;;5075996;28;20757;-73
2021/01/25 05:09:59;;;;;;;19.85;13.73;;;1.50;99.90;;;;;;5067427;28;20031;-74
2021/01/25 05:12:27;;;;;;;19.63;13.50;;;1.50;99.90;;;;;;5077998;28;20032;-73
2021/01/25 05:14:53;;;;;;;17.88;11.98;;;1.50;99.90;;;;;;5075819;28;20365;-73
2021/01/25 05:17:19;;;;;;;25.33;15.90;;;1.50;99.90;;;;;;5079660;28;20036;-74
2021/01/25 05:19:52;;;;;;;18.45;12.98;;;1.50;99.90;;;;;;5076125;28;20027;-74
2021/01/25 05:22:20;;;;;;;21.10;13.48;;;1.50;99.90;;;;;;5071841;28;20112;-73
2021/01/25 05:24:55;;;;;;;17.63;12.02;;;1.50;99.90;;;;;;5075142;28;20478;-74
2021/01/25 05:27:24;;;;;;;19.98;12.85;;;1.50;99.90;;;;;;5076327;28;20039;-74
2021/01/25 05:29:50;;;;;;;19.33;12.60;;;1.50;99.90;;;;;;5077227;28;20115;-74
2021/01/25 05:32:19;;;;;;;21.02;13.75;;;1.50;99.90;;;;;;5075310;28;20032;-74
2021/01/25 05:34:48;;;;;;;18.05;12.52;;;1.50;99.90;;;;;;5076675;28;20028;-74
2021/01/25 05:37:17;;;;;;;20.13;13.45;;;1.50;99.90;;;;;;5078588;28;20051;-74
2021/01/25 05:39:50;;;;;;;20.33;13.80;;;1.50;99.90;;;;;;5089930;28;20047;-74
2021/01/25 05:42:20;;;;;;;15.13;10.13;;;1.50;99.90;;;;;;5074438;28;20465;-73
2021/01/25 05:44:45;;;;;;;19.35;12.15;;;1.40;99.90;;;;;;5076604;28;20139;-74
2021/01/25 05:47:13;;;;;;;19.40;12.25;;;1.40;99.90;;;;;;5075619;28;20024;-74
2021/01/25 05:49:41;;;;;;;18.58;12.65;;;1.40;99.90;;;;;;5074432;28;20048;-74
2021/01/25 05:52:15;;;;;;;20.38;13.02;;;1.40;99.90;;;;;;5074332;28;20124;-74
2021/01/25 05:54:45;;;;;;;21.75;13.65;;;1.50;99.90;;;;;;5076184;28;20025;-74
2021/01/25 05:57:14;;;;;;;22.35;13.98;;;1.40;99.90;;;;;;5075067;28;20028;-74
2021/01/25 05:59:42;;;;;;;30.75;15.80;;;1.40;99.90;;;;;;5075302;28;20016;-73
2021/01/25 06:02:11;;;;;;;29.45;16.42;;;1.40;99.90;;;;;;5077069;28;20396;-74
2021/01/25 06:04:36;;;;;;;24.73;14.43;;;1.40;99.90;;;;;;5088410;28;20271;-73
2021/01/25 06:07:10;;;;;;;23.35;13.82;;;1.30;99.90;;;;;;5089275;28;20568;-74
2021/01/25 06:09:57;;;;;;;18.60;13.00;;;1.30;99.90;;;;;;5062971;28;20039;-74
2021/01/25 06:12:29;;;;;;;24.52;14.70;;;1.40;99.90;;;;;;5078588;28;20020;-74
2021/01/25 06:14:59;;;;;;;23.88;14.35;;;1.30;99.90;;;;;;5070387;28;20024;-74
2021/01/25 06:17:24;;;;;;;22.10;14.55;;;1.40;99.90;;;;;;5075117;28;20109;-74
2021/01/25 06:19:52;;;;;;;24.80;15.20;;;1.30;99.90;;;;;;5076509;28;20029;-74
2021/01/25 06:22:20;;;;;;;22.38;14.48;;;1.40;99.90;;;;;;5058378;28;20122;-74
2021/01/25 06:24:46;;;;;;;21.90;13.55;;;1.40;99.90;;;;;;5076407;28;20027;-74
2021/01/25 06:27:15;;;;;;;25.33;13.88;;;1.40;99.90;;;;;;5074419;28;20572;-74
2021/01/25 06:29:43;;;;;;;26.70;15.30;;;1.40;99.90;;;;;;5073005;28;20036;-74
2021/01/25 06:32:11;;;;;;;31.73;23.58;;;1.40;99.90;;;;;;5073037;28;20559;-74
2021/01/25 06:34:37;;;;;;;40.53;31.80;;;1.40;99.90;;;;;;5074386;28;20788;-74
2021/01/25 06:37:07;;;;;;;40.15;25.27;;;1.40;99.90;;;;;;5074156;28;20117;-74
2021/01/25 06:39:32;;;;;;;49.72;28.73;;;1.40;99.90;;;;;;5081443;28;20562;-74
2021/01/25 06:42:12;;;;;;;32.15;18.92;;;1.30;99.90;;;;;;5088414;28;20023;-74
2021/01/25 06:44:38;;;;;;;27.02;16.25;;;1.30;99.90;;;;;;5069127;28;20028;-74
2021/01/25 06:47:06;;;;;;;26.38;15.20;;;1.40;99.90;;;;;;5061587;28;20024;-74
2021/01/25 06:49:36;;;;;;;27.33;15.75;;;1.40;99.90;;;;;;5056941;28;20134;-74
2021/01/25 06:52:03;;;;;;;26.10;14.77;;;1.40;99.90;;;;;;5071454;28;20043;-74
2021/01/25 06:54:31;;;;;;;26.42;14.95;;;1.40;99.90;;;;;;5086461;28;20020;-74
2021/01/25 06:57:02;;;;;;;26.55;16.20;;;1.40;99.90;;;;;;5075782;28;20031;-74
2021/01/25 06:59:30;;;;;;;28.45;15.77;;;1.40;99.90;;;;;;5079024;28;20050;-74
2021/01/25 07:01:59;;;;;;;25.77;16.02;;;1.50;99.90;;;;;;5085799;28;20036;-74
2021/01/25 07:04:25;;;;;;;27.85;16.83;;;1.50;99.90;;;;;;5089643;28;21658;-72
2021/01/25 07:06:54;;;;;;;26.20;16.23;;;1.50;99.90;;;;;;5070366;28;20024;-72
2021/01/25 07:09:25;;;;;;;27.63;15.27;;;1.50;99.90;;;;;;5073974;28;20032;-72
2021/01/25 07:11:52;;;;;;;27.55;15.43;;;1.50;99.90;;;;;;5074888;28;20025;-74
2021/01/25 07:14:21;;;;;;;28.17;16.02;;;1.50;99.90;;;;;;5074409;28;20740;-74
2021/01/25 07:16:49;;;;;;;26.02;16.13;;;1.50;99.90;;;;;;5073158;28;20485;-74
2021/01/25 07:19:18;;;;;;;26.10;16.13;;;1.50;99.90;;;;;;5057144;28;20595;-74
2021/01/25 07:21:44;;;;;;;40.88;19.65;;;1.50;99.90;;;;;;5072282;28;20373;-74
2021/01/25 07:24:12;;;;;;;29.40;16.92;;;1.50;99.90;;;;;;5076540;28;20028;-74
2021/01/25 07:26:38;;;;;;;33.60;17.52;;;1.50;99.90;;;;;;5074377;28;20035;-74
2021/01/25 07:29:10;;;;;;;28.00;15.77;;;1.50;99.90;;;;;;5087057;28;20391;-73
2021/01/25 07:31:36;;;;;;;27.98;17.38;;;1.50;99.90;;;;;;5090244;28;20038;-74
2021/01/25 07:34:02;;;;;;;28.77;16.20;;;1.50;99.90;;;;;;5086382;28;20020;-74
2021/01/25 07:36:35;;;;;;;25.80;15.82;;;1.60;99.90;;;;;;5086027;28;20048;-74
2021/01/25 07:39:03;;;;;;;27.25;16.58;;;1.60;99.90;;;;;;5085870;28;20035;-74
2021/01/25 07:41:29;;;;;;;30.98;17.05;;;1.60;99.90;;;;;;5086013;28;20162;-74
2021/01/25 07:44:00;;;;;;;33.10;18.60;;;1.60;99.90;;;;;;5086312;28;20441;-74
2021/01/25 07:46:26;;;;;;;34.38;19.98;;;1.60;99.90;;;;;;5085536;28;20043;-74
2021/01/25 07:48:52;;;;;;;33.53;18.52;;;1.60;99.90;;;;;;5066532;28;20020;-74
2021/01/25 07:51:21;;;;;;;44.45;21.40;;;1.60;99.90;;;;;;5073454;28;20461;-74
2021/01/25 07:53:51;;;;;;;34.83;18.50;;;1.60;99.90;;;;;;5083568;28;20025;-74
2021/01/25 07:56:20;;;;;;;32.38;17.38;;;1.60;99.90;;;;;;5089689;28;20035;-74
2021/01/25 07:58:49;;;;;;;32.10;18.25;;;1.60;99.90;;;;;;5075743;28;20665;-74
2021/01/25 08:01:25;;;;;;;31.88;18.00;;;1.60;99.90;;;;;;5074867;28;20058;-71
2021/01/25 08:03:58;;;;;;;31.67;17.63;;;1.60;99.90;;;;;;5087066;28;20032;-72
2021/01/25 08:06:24;;;;;;;28.25;16.45;;;1.60;99.90;;;;;;5090931;28;20024;-75
2021/01/25 08:08:52;;;;;;;28.58;16.27;;;1.60;99.90;;;;;;5091626;28;20024;-74
2021/01/25 08:11:22;;;;;;;33.40;18.55;;;1.60;99.90;;;;;;5089607;28;20044;-75
2021/01/25 08:13:57;;;;;;;35.83;19.30;;;1.70;99.90;;;;;;5091642;28;20024;-75
2021/01/25 08:16:23;;;;;;;29.58;17.20;;;1.70;99.90;;;;;;5088313;28;20031;-75
2021/01/25 08:19:07;;;;;;;34.40;19.10;;;1.70;99.90;;;;;;5069762;28;20027;-75
2021/01/25 08:21:35;;;;;;;27.83;16.25;;;1.80;99.90;;;;;;5086847;28;20028;-74
2021/01/25 08:24:05;;;;;;;31.05;17.80;;;1.80;99.90;;;;;;5060356;28;20023;-75
2021/01/25 08:26:31;;;;;;;28.65;17.55;;;1.80;99.90;;;;;;5062032;28;20050;-75
2021/01/25 08:29:06;;;;;;;29.08;17.98;;;1.80;99.90;;;;;;5088611;28;20508;-75
2021/01/25 08:31:42;;;;;;;36.08;19.75;;;1.80;99.90;;;;;;5072572;28;20198;-74
2021/01/25 08:34:38;;;;;;;29.83;18.02;;;1.80;99.90;;;;;;5088337;28;20028;-74
2021/01/25 08:37:12;;;;;;;34.00;18.73;;;1.90;99.90;;;;;;5074904;28;20086;-75
2021/01/25 08:39:43;;;;;;;33.03;18.48;;;1.90;99.90;;;;;;5093589;28;20028;-74
2021/01/25 08:42:16;;;;;;;28.88;17.63;;;1.80;99.90;;;;;;5070696;28;20036;-74
2021/01/25 08:44:45;;;;;;;30.85;18.52;;;1.80;99.90;;;;;;5084883;28;20039;-75
2021/01/25 08:47:14;;;;;;;33.20;18.58;;;1.80;99.90;;;;;;5088655;28;20028;-73
2021/01/25 08:49:42;;;;;;;29.90;17.92;;;1.80;99.90;;;;;;5090138;28;20106;-74
2021/01/25 08:52:23;;;;;;;34.40;19.30;;;1.90;99.90;;;;;;5087192;28;20473;-74
2021/01/25 08:54:49;;;;;;;30.33;18.05;;;1.90;99.90;;;;;;5092419;28;20024;-74
2021/01/25 08:57:19;;;;;;;34.53;19.88;;;1.90;99.90;;;;;;5089791;28;20039;-74
2021/01/25 08:59:48;;;;;;;28.17;17.70;;;1.90;99.90;;;;;;5084013;28;20098;-74
2021/01/25 09:02:25;;;;;;;29.90;19.25;;;1.90;99.90;;;;;;5093997;28;20028;-74
2021/01/25 09:04:52;;;;;;;33.92;20.77;;;2.00;99.90;;;;;;5067266;28;20033;-74
2021/01/25 09:07:20;;;;;;;33.05;19.33;;;1.90;99.90;;;;;;5084744;28;20124;-74
2021/01/25 09:09:48;;;;;;;29.73;18.60;;;2.00;99.90;;;;;;5092948;28;20543;-74
2021/01/25 09:12:17;;;;;;;29.27;17.50;;;2.00;99.90;;;;;;5089733;28;20096;-74
2021/01/25 09:14:45;;;;;;;28.83;17.70;;;2.00;99.90;;;;;;5089831;28;20039;-74
2021/01/25 09:17:12;;;;;;;27.17;17.08;;;2.00;99.90;;;;;;5091192;28;20457;-74
2021/01/25 09:19:38;;;;;;;25.40;16.67;;;2.00;99.90;;;;;;5089921;28;20080;-74
2021/01/25 09:22:05;;;;;;;24.77;15.98;;;2.00;99.90;;;;;;5089727;28;20408;-74
2021/01/25 09:24:30;;;;;;;24.80;15.88;;;2.00;99.90;;;;;;5087602;28;20051;-74
2021/01/25 09:26:56;;;;;;;20.63;14.05;;;2.00;99.90;;;;;;5073959;28;20090;-74
2021/01/25 09:29:25;;;;;;;22.45;15.63;;;2.10;99.90;;;;;;5078758;28;20030;-74
2021/01/25 09:31:50;;;;;;;25.05;16.27;;;2.10;99.90;;;;;;5091002;28;20030;-74
2021/01/25 09:34:23;;;;;;;24.48;16.17;;;2.10;99.90;;;;;;5089274;28;20376;-74
2021/01/25 09:37:02;;;;;;;21.52;15.25;;;2.10;99.90;;;;;;5089879;28;20102;-74
2021/01/25 09:39:32;;;;;;;22.15;15.55;;;2.10;99.90;;;;;;5064077;28;20067;-74
2021/01/25 09:41:58;;;;;;;22.52;15.52;;;2.10;99.90;;;;;;5076192;28;20032;-74
2021/01/25 09:44:23;;;;;;;24.95;16.75;;;2.20;99.90;;;;;;5092430;28;20471;-74
2021/01/25 09:46:51;;;;;;;23.02;16.45;;;2.10;99.90;;;;;;5052998;28;20459;-74
2021/01/25 09:49:21;;;;;;;22.10;14.68;;;2.20;99.90;;;;;;5089806;28;20067;-74
2021/01/25 09:51:47;;;;;;;22.27;15.70;;;2.10;99.90;;;;;;5092327;28;20592;-74
2021/01/25 09:54:16;;;;;;;29.55;18.65;;;2.20;99.90;;;;;;5088815;28;20082;-74
2021/01/25 09:56:42;;;;;;;26.73;16.77;;;2.20;99.90;;;;;;5087423;28;20024;-74
2021/01/25 09:59:12;;;;;;;23.67;16.60;;;2.20;99.90;;;;;;5088419;28;20032;-74
2021/01/25 10:01:40;;;;;;;24.30;16.73;;;2.20;99.90;;;;;;5089192;28;20365;-74
2021/01/25 10:04:06;;;;;;;25.40;15.75;;;2.20;99.90;;;;;;5094631;28;20042;-74
2021/01/25 10:06:32;;;;;;;22.45;15.50;;;2.20;99.90;;;;;;5091663;28;20023;-73
2021/01/25 10:08:58;;;;;;;23.38;16.13;;;2.20;99.90;;;;;;5087173;28;20020;-74
2021/01/25 10:11:25;;;;;;;23.92;16.15;;;2.20;99.90;;;;;;5092698;28;20031;-74
2021/01/25 10:13:55;;;;;;;24.90;17.05;;;2.30;99.90;;;;;;5089811;28;20081;-74
2021/01/25 10:16:26;;;;;;;24.33;15.73;;;2.30;99.90;;;;;;5093428;28;20043;-73
2021/01/25 10:18:54;;;;;;;19.92;14.40;;;2.30;99.90;;;;;;5093773;28;20031;-74
2021/01/25 10:21:20;;;;;;;19.80;14.20;;;2.30;99.90;;;;;;5093798;28;20027;-74
2021/01/25 10:23:50;;;;;;;24.08;16.23;;;2.30;99.90;;;;;;5076476;28;20024;-73
2021/01/25 10:26:16;;;;;;;22.02;15.70;;;2.30;99.90;;;;;;5090736;28;20019;-74
2021/01/25 10:28:42;;;;;;;24.10;16.10;;;2.30;99.90;;;;;;5089317;28;20639;-73
2021/01/25 10:31:08;;;;;;;20.50;14.85;;;2.30;99.90;;;;;;5089162;28;20059;-73
2021/01/25 10:33:36;;;;;;;20.38;14.93;;;2.40;99.90;;;;;;5089224;28;20024;-73
2021/01/25 10:36:04;;;;;;;25.23;17.75;;;2.40;99.90;;;;;;5087081;28;20044;-73
2021/01/25 10:38:29;;;;;;;25.45;16.88;;;2.40;99.90;;;;;;5088922;28;20033;-73
2021/01/25 10:41:00;;;;;;;23.75;16.70;;;2.40;99.90;;;;;;5088306;28;20036;-73
2021/01/25 10:43:29;;;;;;;28.20;17.92;;;2.40;99.90;;;;;;5089232;28;20088;-73
2021/01/25 10:45:57;;;;;;;23.92;15.70;;;2.40;99.90;;;;;;5092831;28;20539;-73
2021/01/25 10:48:23;;;;;;;24.83;16.95;;;2.50;99.90;;;;;;5091419;28;20637;-73
2021/01/25 10:50:49;;;;;;;25.63;18.08;;;2.50;99.90;;;;;;5088603;28;20023;-73
2021/01/25 10:53:18;;;;;;;25.92;16.88;;;2.60;99.90;;;;;;5084142;28;20335;-73
2021/01/25 10:55:47;;;;;;;23.95;16.70;;;2.50;99.90;;;;;;5089670;28;20081;-73
2021/01/25 10:58:12;;;;;;;25.00;17.02;;;2.50;99.90;;;;;;5090880;28;20107;-73
2021/01/25 11:00:38;;;;;;;25.05;17.52;;;2.50;99.90;;;;;;5087685;28;20107;-73
2021/01/25 11:03:06;;;;;;;22.83;15.57;;;2.50;99.90;;;;;;5085889;28;20552;-73
2021/01/25 11:05:33;;;;;;;24.10;16.42;;;2.60;99.90;;;;;;5083746;28;20027;-73
2021/01/25 11:08:01;;;;;;;23.00;16.25;;;2.60;99.90;;;;;;5085976;28;20600;-73
2021/01/25 11:10:29;;;;;;;25.50;17.92;;;2.60;99.90;;;;;;5090625;28;20024;-72
2021/01/25 11:12:57;;;;;;;24.92;17.10;;;2.60;99.90;;;;;;5083840;28;20099;-73
2021/01/25 11:15:25;;;;;;;33.05;20.42;;;2.70;99.90;;;;;;5088998;28;20104;-73
2021/01/25 11:17:51;;;;;;;28.77;18.90;;;2.70;99.90;;;;;;5088867;28;20051;-73
2021/01/25 11:20:19;;;;;;;28.33;19.48;;;2.60;99.90;;;;;;5086948;28;20051;-73
2021/01/25 11:22:48;;;;;;;24.75;17.52;;;2.60;99.90;;;;;;5088804;28;20464;-73
2021/01/25 11:25:13;;;;;;;25.02;17.75;;;2.60;99.90;;;;;;5087050;28;20082;-73
2021/01/25 11:27:42;;;;;;;22.98;16.00;;;2.70;99.90;;;;;;5088192;28;20028;-73
2021/01/25 11:30:16;;;;;;;26.30;17.33;;;2.70;99.90;;;;;;5090397;28;20146;-72
2021/01/25 11:32:41;;;;;;;29.90;20.45;;;2.70;99.90;;;;;;5088100;28;20121;-72
2021/01/25 11:35:08;;;;;;;26.75;18.00;;;2.70;99.90;;;;;;5087457;28;20049;-72
2021/01/25 11:37:34;;;;;;;27.38;19.05;;;2.70;99.90;;;;;;5072808;28;20098;-73
2021/01/25 11:40:04;;;;;;;27.35;18.42;;;2.70;99.90;;;;;;5084717;28;20024;-72
2021/01/25 11:42:29;;;;;;;24.33;16.70;;;2.70;99.90;;;;;;5090379;28;20657;-72
2021/01/25 11:44:57;;;;;;;24.92;17.02;;;2.70;99.90;;;;;;5088632;28;20111;-72
2021/01/25 11:47:25;;;;;;;22.45;16.10;;;2.70;99.90;;;;;;5088454;28;20023;-72
2021/01/25 11:49:53;;;;;;;23.60;16.52;;;2.70;99.90;;;;;;5085536;28;20047;-72
2021/01/25 11:52:19;;;;;;;28.92;19.58;;;2.80;99.90;;;;;;5087693;28;20028;-72
2021/01/25 11:54:47;;;;;;;21.70;16.00;;;2.70;99.90;;;;;;5090315;28;20575;-71
2021/01/25 11:57:13;;;;;;;25.60;17.38;;;2.70;99.90;;;;;;5062903;28;20020;-71
2021/01/25 11:59:44;;;;;;;28.15;18.73;;;2.70;99.90;;;;;;5073602;28;20320;-72
2021/01/25 12:02:09;;;;;;;21.90;15.35;;;2.70;99.90;;;;;;5091725;28;20028;-72
2021/01/25 12:04:37;;;;;;;21.45;15.52;;;2.70;99.90;;;;;;5086075;28;20050;-72
2021/01/25 12:07:05;;;;;;;22.80;15.85;;;2.70;99.90;;;;;;5085518;28;20043;-71
2021/01/25 12:09:39;;;;;;;20.75;14.68;;;2.70;99.90;;;;;;5085109;28;20088;-71
2021/01/25 12:12:07;;;;;;;20.13;14.93;;;2.70;99.90;;;;;;5086613;28;20561;-72
2021/01/25 12:14:36;;;;;;;21.00;15.35;;;2.70;99.90;;;;;;5083531;28;20111;-72
2021/01/25 12:17:06;;;;;;;19.95;14.55;;;2.70;99.90;;;;;;5069204;28;20036;-72
2021/01/25 12:19:32;;;;;;;19.88;14.13;;;2.70;99.90;;;;;;5082677;28;20024;-72
2021/01/25 12:22:02;;;;;;;21.90;15.88;;;2.70;99.90;;;;;;5058016;28;20035;-73
2021/01/25 12:24:30;;;;;;;20.85;15.80;;;2.70;99.90;;;;;;5087626;28;20109;-72
2021/01/25 12:26:58;;;;;;;23.80;15.85;;;2.70;99.90;;;;;;5086431;28;20119;-72
2021/01/25 12:29:26;;;;;;;20.85;15.27;;;2.70;99.90;;;;;;5089794;28;20035;-73
2021/01/25 12:31:52;;;;;;;21.48;15.57;;;2.70;99.90;;;;;;5090155;28;20038;-73
2021/01/25 12:34:18;;;;;;;21.98;15.82;;;2.70;99.90;;;;;;5090396;28;20024;-73
2021/01/25 12:36:43;;;;;;;28.42;19.23;;;2.70;99.90;;;;;;5072645;28;20044;-73
2021/01/25 12:39:09;;;;;;;22.58;16.60;;;2.80;99.90;;;;;;5091481;28;20093;-72
2021/01/25 12:41:37;;;;;;;26.60;18.27;;;2.70;99.90;;;;;;5089249;28;20121;-71
2021/01/25 12:44:06;;;;;;;23.38;16.70;;;2.80;99.90;;;;;;4734109;28;10000010;-72